Portada
METAR-TAF:

METAR-TAF

Aeroports :

Taiyuan, Xina

latitud: 37-47N, longitud: 112-33E, altitud: 779 m

Observació

L'informe es va fer fa 32 minuts, a les 05:00 UTC
Vent 6 kt del Nord, variant entre Nord-Oest i Nord/Nord-Est
Temperatura 13°C
Humitat 58%
Pressió 1006 hPa
Visibilitat 10 km o més
Núvols disperses a una alçada de 4000 ft

METAR: ZBYN 200500Z 35003MPS 320V030 9999 SCT040 13/05 Q1006 NOSIG

Hora: 13:32 (05:32 UTC)

Pronòstic

L'informe es va fer fa 10 hores i 29 minuts, a les 19:03 UTC
Pronòstic vàlid del 20 a les 00 UTC al 20 a les 24 UTC
Vent 8 kt del Sud/Sud-Oest
Visibilitat: 6000 m
Temporalment
l' 20 a les 00 UTC al 20 a les 04 UTC
Visibilitat: 2500 m
xàfecs de pluja, boirina
Evolucionant progressivament
l' 20 a les 05 UTC al 20 a les 06 UTC
Vent 12 kt del Nord-Oest amb ràfegues de 23 kt

TAF: ZBYN 191903Z 2000/2024 21004MPS 6000 NSC TX18/2007Z TN01/2022Z TEMPO 2000/2004 2500 -SHRA BR BECMG 2005/2006 32006G12MPS

Observacions i pronòstics meteorològics de més de 4000 aeroports (METAR i TAF).

Les estacions disponibles són els punts grocs i vermells al mapa.

Posi el ratolí al punt desitjat per veure el nom de l'estació.

Feu clic per veure les observacions i els pronòstics meteorològics.

Per canviar el mapa: feu clic els botons verds amb una creu de color negre per apropar; al botó verd amb un guió per allunyar la imatge; o en les fletxes verdes per a mapes adjacents.


METAR-TAF: